Upstream stations:
SHEF ID: TIFM7 Elk River near Tiff City, Mo
STATION TYPE:
Regulating: Stage = 15.00, Flow = 21304
PRECIP STAGE STAGE(2) RIV-FLOW BAT-LOAD
in ft ft cfs volt
Ccp-Rev Ccp-Rev Ccp-Rev Ccp-Rev Ccp-Rev
(US/Central)
03/30 00:00 0.00 4.82 4.78 1050 11.64
03/30 01:00 0.00 4.81 4.77 1042 11.66
03/30 02:00 0.00 4.81 4.76 1042 11.65
03/30 03:00 0.03 4.80 4.79 1034 11.65
03/30 04:00 0.27 4.81 4.78 1042 11.62
03/30 05:00 0.16 4.82 4.79 1050 11.62
03/30 06:00 0.06 4.82 4.80 1050 11.61
03/30 07:00 0.09 4.83 4.81 1058 11.59
03/30 08:00 0.02 4.83 4.82 1058 11.58
03/30 09:00 0.00 4.84 4.82 1066 11.73
03/30 10:00 0.03 4.84 4.82 1066 11.85
03/30 11:00 0.01 4.84 4.83 1066 11.88
03/30 12:00 0.00 4.84 4.83 1066 11.92
03/30 13:00 0.16 4.86 4.83 1082 11.98
03/30 14:00 0.03 4.87 4.85 1090 12.41
03/30 15:00 0.00 4.88 4.85 1098 12.36
03/30 16:00 0.00 4.89 4.88 1106 12.36
03/30 17:00 0.06 4.90 4.89 1114 12.31
03/30 18:00 0.05 4.92 4.91 1130 12.27
03/30 19:00 0.01 4.95 4.93 1155 12.17
03/30 20:00 0.01 4.98 4.96 1180 11.96
03/30 21:00 0.01 5.02 5.01 1215 11.74
03/30 22:00 0.00 5.07 5.06 1260 11.68
03/30 23:00 0.00 5.12 5.11 1306 11.65